createdAt,value
2022-09-09T00:01:27.770Z,0.80
2022-09-09T00:03:57.948Z,1.10
2022-09-09T00:06:28.758Z,0.80
2022-09-09T00:08:58.664Z,0.93
2022-09-09T00:11:34.221Z,1.10
2022-09-09T00:14:05.414Z,1.00
2022-09-09T00:16:33.757Z,1.10
2022-09-09T00:19:10.269Z,1.00
2022-09-09T00:21:38.826Z,0.97
2022-09-09T00:24:36.197Z,1.00
2022-09-09T00:27:08.127Z,0.90
2022-09-09T00:29:38.195Z,0.90
2022-09-09T00:32:18.534Z,1.00
2022-09-09T00:34:54.156Z,1.00
2022-09-09T00:37:22.784Z,1.30
2022-09-09T00:39:52.947Z,1.10
2022-09-09T00:42:38.817Z,1.00
2022-09-09T00:45:32.537Z,1.13
2022-09-09T00:48:02.873Z,0.90
2022-09-09T00:50:35.287Z,0.97
2022-09-09T00:53:05.694Z,0.80
2022-09-09T00:55:42.626Z,1.20
2022-09-09T00:58:10.539Z,0.97
2022-09-09T01:00:43.379Z,0.80
2022-09-09T01:03:10.467Z,0.90
2022-09-09T01:05:47.589Z,0.83
2022-09-09T01:08:17.815Z,1.07
2022-09-09T01:10:47.130Z,0.80
2022-09-09T01:13:18.734Z,1.00
2022-09-09T01:15:47.430Z,0.83
2022-09-09T01:18:18.433Z,0.90
2022-09-09T01:21:03.535Z,0.73
2022-09-09T01:23:36.473Z,1.07
2022-09-09T01:26:15.655Z,0.80
2022-09-09T01:28:44.667Z,0.90
2022-09-09T01:31:13.811Z,0.90
2022-09-09T01:33:40.917Z,0.93
2022-09-09T01:36:08.597Z,0.90
2022-09-09T01:38:36.528Z,1.07
2022-09-09T01:41:03.793Z,0.77
2022-09-09T01:43:31.191Z,0.90
2022-09-09T01:46:00.460Z,0.90
2022-09-09T01:48:27.937Z,1.00
2022-09-09T01:50:55.177Z,0.73
2022-09-09T01:56:21.877Z,0.77
2022-09-09T01:58:54.922Z,1.00
2022-09-09T02:01:42.310Z,1.10
2022-09-09T02:04:16.242Z,0.70
2022-09-09T02:06:45.616Z,0.70
2022-09-09T02:09:13.975Z,0.70
2022-09-09T02:11:41.707Z,0.80
2022-09-09T02:14:11.908Z,0.80
2022-09-09T02:16:42.040Z,0.87
2022-09-09T02:19:15.322Z,1.00
2022-09-09T02:21:43.550Z,1.20
2022-09-09T02:24:12.700Z,0.83
2022-09-09T02:26:42.082Z,1.00
2022-09-09T02:29:17.689Z,1.00
2022-09-09T02:31:46.585Z,1.10
2022-09-09T02:34:14.629Z,0.77
2022-09-09T02:36:44.388Z,1.03
2022-09-09T02:39:12.096Z,0.70
2022-09-09T02:41:40.974Z,0.90
2022-09-09T02:44:15.132Z,0.80
2022-09-09T02:46:54.452Z,1.00
2022-09-09T02:49:33.743Z,0.90
2022-09-09T02:52:07.987Z,0.90
2022-09-09T02:54:37.184Z,0.90
2022-09-09T02:57:13.028Z,1.00
2022-09-09T02:59:41.000Z,0.90
2022-09-09T03:02:08.291Z,0.90
2022-09-09T03:04:35.475Z,0.90
2022-09-09T03:07:04.542Z,0.97
2022-09-09T03:09:31.893Z,1.10
2022-09-09T03:11:59.002Z,1.07
2022-09-09T03:14:26.187Z,0.83
2022-09-09T03:16:53.854Z,0.87
2022-09-09T03:19:21.581Z,1.00
2022-09-09T03:21:48.790Z,1.00
2022-09-09T03:24:16.016Z,1.00
2022-09-09T03:26:45.719Z,1.27
2022-09-09T03:29:13.684Z,1.07
2022-09-09T03:31:41.288Z,1.20
2022-09-09T03:34:08.788Z,1.00
2022-09-09T03:36:36.061Z,0.90
2022-09-09T03:39:04.120Z,0.90
2022-09-09T03:41:31.957Z,1.10
2022-09-09T03:43:59.038Z,0.93
2022-09-09T03:46:26.922Z,1.00
2022-09-09T03:48:54.139Z,1.03
2022-09-09T03:51:22.923Z,1.30
2022-09-09T03:53:50.122Z,1.00
2022-09-09T03:56:17.198Z,1.00
2022-09-09T03:58:44.730Z,0.90
2022-09-09T04:01:14.448Z,0.90
2022-09-09T04:03:42.057Z,1.00
2022-09-09T04:06:11.880Z,0.93
2022-09-09T04:08:39.499Z,0.90
2022-09-09T04:11:07.507Z,1.30
2022-09-09T04:13:35.744Z,1.10
2022-09-09T04:16:04.744Z,0.80
2022-09-09T04:18:32.449Z,1.00
2022-09-09T04:20:59.660Z,0.97
2022-09-09T04:23:29.782Z,1.00
2022-09-09T04:25:57.900Z,1.10
2022-09-09T04:28:25.923Z,0.80
2022-09-09T04:30:53.343Z,0.90
2022-09-09T04:33:20.819Z,1.10
2022-09-09T04:35:49.360Z,1.00
2022-09-09T04:38:17.284Z,0.93
2022-09-09T04:40:45.091Z,1.23
2022-09-09T04:43:14.521Z,1.10
2022-09-09T04:45:42.126Z,1.10
2022-09-09T04:48:10.627Z,0.83
2022-09-09T04:50:37.792Z,0.80
2022-09-09T04:53:05.939Z,1.00
2022-09-09T04:55:34.119Z,1.00
2022-09-09T04:58:05.184Z,1.40
2022-09-09T05:00:32.633Z,1.30
2022-09-09T05:02:59.777Z,0.90
2022-09-09T05:05:27.121Z,1.40
2022-09-09T05:07:54.198Z,1.10
2022-09-09T05:10:21.304Z,1.10
2022-09-09T05:12:56.522Z,1.20
2022-09-09T05:15:24.148Z,1.37
2022-09-09T05:17:53.365Z,1.20
2022-09-09T05:20:20.885Z,1.33
2022-09-09T05:22:48.048Z,1.00
2022-09-09T05:25:15.248Z,1.30
2022-09-09T05:27:42.533Z,1.10
2022-09-09T05:30:09.960Z,1.20
2022-09-09T05:32:37.629Z,1.20
2022-09-09T05:35:05.070Z,1.50
2022-09-09T05:37:32.776Z,1.30
2022-09-09T05:39:59.964Z,1.67
2022-09-09T05:42:31.630Z,1.50
2022-09-09T05:44:59.104Z,1.40
2022-09-09T05:47:28.642Z,1.03
2022-09-09T05:49:56.508Z,1.43
2022-09-09T05:52:24.742Z,1.50
2022-09-09T05:54:51.893Z,1.33
2022-09-09T05:57:20.436Z,1.70
2022-09-09T05:59:47.528Z,1.40
2022-09-09T06:02:15.494Z,1.43
2022-09-09T06:04:42.843Z,1.40
2022-09-09T06:07:09.958Z,1.20
2022-09-09T06:09:37.108Z,1.43
2022-09-09T06:12:04.409Z,1.23
2022-09-09T06:14:31.512Z,1.33
2022-09-09T06:16:58.565Z,1.30
2022-09-09T06:19:27.415Z,1.50
2022-09-09T06:21:54.495Z,1.40
2022-09-09T06:24:22.136Z,1.67
2022-09-09T06:26:49.199Z,1.60
2022-09-09T06:29:16.285Z,1.40
2022-09-09T06:31:43.392Z,1.20
2022-09-09T06:34:10.728Z,1.50
2022-09-09T06:36:39.184Z,1.33
2022-09-09T06:39:09.755Z,1.47
2022-09-09T06:41:39.596Z,1.30
2022-09-09T06:44:07.012Z,1.40
2022-09-09T06:46:34.517Z,1.30
2022-09-09T06:49:01.864Z,1.27
2022-09-09T06:51:30.389Z,1.37
2022-09-09T06:53:58.987Z,1.60
2022-09-09T06:56:26.486Z,1.47
2022-09-09T06:58:55.512Z,1.40
2022-09-09T07:01:24.223Z,1.60
2022-09-09T07:03:52.231Z,1.63
2022-09-09T07:06:24.619Z,1.40
2022-09-09T07:08:56.590Z,1.30
2022-09-09T07:11:26.698Z,1.40
2022-09-09T07:13:53.802Z,1.50
2022-09-09T07:16:21.979Z,1.30
2022-09-09T07:18:49.930Z,1.20
2022-09-09T07:21:17.045Z,1.40
2022-09-09T07:23:44.439Z,1.40
2022-09-09T07:26:12.322Z,1.30
2022-09-09T07:28:39.894Z,1.30
2022-09-09T07:31:08.189Z,1.10
2022-09-09T07:33:36.254Z,1.13
2022-09-09T07:36:31.230Z,1.23
2022-09-09T07:39:02.778Z,1.37
2022-09-09T07:41:31.487Z,1.00
2022-09-09T07:43:59.293Z,1.00
2022-09-09T07:46:27.575Z,0.83
2022-09-09T07:48:56.647Z,0.97
2022-09-09T07:51:23.721Z,0.90
2022-09-09T07:53:53.660Z,1.10
2022-09-09T07:56:24.109Z,0.97
2022-09-09T07:58:51.991Z,1.00
2022-09-09T08:01:20.626Z,1.10
2022-09-09T08:03:51.739Z,0.80
2022-09-09T08:06:21.817Z,1.10
2022-09-09T08:08:51.646Z,0.93
2022-09-09T08:11:19.030Z,1.00
2022-09-09T08:13:50.849Z,1.13
2022-09-09T08:16:22.880Z,1.00
2022-09-09T08:18:53.300Z,0.63
2022-09-09T08:21:22.230Z,1.00
2022-09-09T08:23:50.387Z,1.30
2022-09-09T08:26:24.126Z,1.40
2022-09-09T08:28:52.513Z,1.10
2022-09-09T08:33:56.635Z,1.20
2022-09-09T08:36:25.104Z,1.40
2022-09-09T08:38:55.361Z,1.03
2022-09-09T08:41:31.451Z,1.20
2022-09-09T08:44:07.842Z,1.27
2022-09-09T08:46:35.071Z,1.30
2022-09-09T08:49:15.637Z,1.37
2022-09-09T08:51:43.127Z,1.10
2022-09-09T08:54:11.005Z,1.30
2022-09-09T08:56:38.321Z,1.37
2022-09-09T08:59:06.277Z,1.40
2022-09-09T09:01:52.201Z,1.57
2022-09-09T09:04:19.386Z,1.40
2022-09-09T09:06:59.678Z,1.53
2022-09-09T09:09:46.224Z,1.60
2022-09-09T09:12:20.995Z,1.23
2022-09-09T09:14:49.129Z,1.20
2022-09-09T09:17:23.943Z,1.40
2022-09-09T09:19:51.274Z,1.37
2022-09-09T09:22:23.389Z,1.13
2022-09-09T09:24:53.578Z,1.33
2022-09-09T09:27:33.158Z,1.37
2022-09-09T09:30:26.903Z,1.47
2022-09-09T09:33:01.478Z,1.80
2022-09-09T09:35:28.648Z,1.67
2022-09-09T09:40:51.185Z,1.30
2022-09-09T09:43:21.775Z,1.00
2022-09-09T09:46:06.891Z,1.10
2022-09-09T09:48:36.345Z,1.00
2022-09-09T09:51:08.429Z,0.90
2022-09-09T09:53:37.551Z,1.10
2022-09-09T09:56:09.368Z,0.83
2022-09-09T09:58:45.814Z,0.80
2022-09-09T10:01:28.730Z,0.83
2022-09-09T10:03:58.710Z,0.93
2022-09-09T10:06:34.047Z,0.83
2022-09-09T10:09:02.685Z,0.80
2022-09-09T10:11:48.280Z,0.50
2022-09-09T10:14:21.460Z,0.60
2022-09-09T10:16:59.514Z,0.70
2022-09-09T10:19:34.610Z,0.70
2022-09-09T10:22:35.110Z,0.90
2022-09-09T10:25:07.289Z,0.70
2022-09-09T10:27:40.819Z,0.70
2022-09-09T10:30:17.506Z,0.70
2022-09-09T10:32:44.546Z,0.70
2022-09-09T10:35:14.838Z,0.77
2022-09-09T10:37:50.911Z,0.40
2022-09-09T10:40:33.916Z,0.70
2022-09-09T10:43:06.222Z,0.57
2022-09-09T10:45:37.873Z,0.60
2022-09-09T10:48:08.000Z,0.77
2022-09-09T10:51:00.703Z,0.70
2022-09-09T10:53:57.282Z,0.63
2022-09-09T10:56:24.981Z,0.70
2022-09-09T10:58:52.049Z,0.80
2022-09-09T11:01:34.417Z,0.57
2022-09-09T11:04:22.934Z,0.70
2022-09-09T11:06:53.405Z,0.80
2022-09-09T11:09:23.043Z,0.70
2022-09-09T11:11:50.075Z,0.63
2022-09-09T11:14:21.834Z,0.53
2022-09-09T11:16:59.922Z,0.73
2022-09-09T11:19:30.126Z,0.87
2022-09-09T11:21:58.927Z,0.77
2022-09-09T11:24:30.185Z,0.80
2022-09-09T11:27:07.728Z,0.70
2022-09-09T11:29:53.906Z,1.07
2022-09-09T11:32:20.951Z,0.70
2022-09-09T11:34:53.952Z,0.90
2022-09-09T11:37:21.025Z,0.80
2022-09-09T11:40:26.623Z,0.60
2022-09-09T11:43:26.111Z,0.90
2022-09-09T11:46:00.253Z,1.10
2022-09-09T11:48:28.432Z,0.77
2022-09-09T11:51:03.909Z,0.70
2022-09-09T11:53:30.992Z,0.60
2022-09-09T11:56:14.601Z,0.70
2022-09-09T11:58:43.548Z,0.80
2022-09-09T12:01:17.775Z,1.00
2022-09-09T12:03:52.414Z,0.90
2022-09-09T12:06:34.422Z,0.93
2022-09-09T12:09:21.796Z,0.90
2022-09-09T12:11:48.907Z,0.90
2022-09-09T12:14:34.916Z,0.80
2022-09-09T12:17:11.296Z,0.80
2022-09-09T12:19:38.665Z,1.00
2022-09-09T12:22:13.223Z,1.00
2022-09-09T12:24:48.439Z,0.80
2022-09-09T12:27:22.477Z,0.83
2022-09-09T12:29:58.302Z,1.00
2022-09-09T12:32:26.866Z,1.00
2022-09-09T12:34:55.980Z,1.13
2022-09-09T12:37:26.066Z,1.30
2022-09-09T12:39:55.778Z,1.27
2022-09-09T12:42:24.005Z,1.20
2022-09-09T12:44:53.881Z,1.33
2022-09-09T12:47:25.123Z,1.07
2022-09-09T12:49:57.183Z,1.30
2022-09-09T12:52:24.885Z,1.17
2022-09-09T12:54:54.717Z,1.00
2022-09-09T12:57:22.306Z,1.00
2022-09-09T12:59:49.401Z,1.30
2022-09-09T13:02:21.327Z,1.17
2022-09-09T13:04:49.273Z,1.10
2022-09-09T13:07:17.456Z,1.33
2022-09-09T13:09:45.684Z,1.27
2022-09-09T13:12:17.107Z,1.10
2022-09-09T13:14:45.467Z,1.20
2022-09-09T13:17:21.174Z,1.30
2022-09-09T13:19:48.329Z,1.03
2022-09-09T13:22:21.550Z,1.30
2022-09-09T13:24:48.702Z,1.10
2022-09-09T13:27:29.590Z,0.93
2022-09-09T13:29:57.744Z,0.90
2022-09-09T13:32:25.788Z,1.00
2022-09-09T13:34:53.865Z,1.10
2022-09-09T13:37:35.427Z,1.00
2022-09-09T13:40:03.899Z,1.00
2022-09-09T13:42:33.102Z,1.27
2022-09-09T13:45:01.135Z,1.00
2022-09-09T13:47:37.863Z,1.20
2022-09-09T13:50:25.203Z,0.93
2022-09-09T13:52:54.301Z,1.10
2022-09-09T13:55:23.411Z,0.97
2022-09-09T13:57:53.555Z,1.20
2022-09-09T14:00:21.711Z,1.00
2022-09-09T14:02:49.464Z,1.13
2022-09-09T14:05:16.963Z,0.80
2022-09-09T14:07:44.746Z,1.17
2022-09-09T14:10:12.379Z,0.90
2022-09-09T14:12:39.782Z,0.80
2022-09-09T14:15:08.572Z,1.10
2022-09-09T14:17:37.101Z,0.90
2022-09-09T14:20:08.851Z,0.90
2022-09-09T14:22:36.008Z,1.10
2022-09-09T14:25:03.245Z,1.07
2022-09-09T14:27:31.127Z,1.23
2022-09-09T14:29:58.828Z,0.87
2022-09-09T14:32:26.132Z,1.00
2022-09-09T14:34:53.286Z,1.30
2022-09-09T14:37:21.538Z,0.87
2022-09-09T14:39:51.324Z,1.10
2022-09-09T14:42:18.636Z,1.00
2022-09-09T14:44:45.705Z,1.00
2022-09-09T14:47:12.882Z,1.40
2022-09-09T14:49:41.611Z,0.93
2022-09-09T14:52:10.967Z,1.27
2022-09-09T14:54:38.324Z,0.90
2022-09-09T14:57:05.457Z,0.70
2022-09-09T14:59:32.518Z,0.80
2022-09-09T15:02:01.712Z,0.70
2022-09-09T15:04:28.800Z,0.90
2022-09-09T15:06:55.897Z,1.10
2022-09-09T15:09:23.787Z,0.80
2022-09-09T15:11:50.865Z,0.97
2022-09-09T15:14:22.032Z,0.77
2022-09-09T15:16:52.363Z,1.00
2022-09-09T15:19:19.451Z,1.00
2022-09-09T15:21:46.557Z,0.90
2022-09-09T15:24:14.596Z,1.00
2022-09-09T15:26:41.888Z,0.80
2022-09-09T15:29:09.614Z,1.10
2022-09-09T15:31:36.984Z,0.70
2022-09-09T15:34:05.327Z,0.90
2022-09-09T15:36:33.438Z,1.10
2022-09-09T15:39:00.856Z,0.80
2022-09-09T15:41:28.360Z,1.10
2022-09-09T15:43:59.855Z,1.00
2022-09-09T15:46:33.153Z,1.30
2022-09-09T15:49:05.661Z,1.20
2022-09-09T15:51:48.200Z,0.97
2022-09-09T15:54:17.866Z,1.00
2022-09-09T15:56:45.442Z,1.23
2022-09-09T15:59:12.675Z,0.70
2022-09-09T16:01:43.964Z,1.07
2022-09-09T16:04:11.232Z,1.07
2022-09-09T16:06:38.405Z,1.10
2022-09-09T16:09:06.839Z,0.80
2022-09-09T16:11:36.021Z,1.00
2022-09-09T16:14:04.950Z,1.17
2022-09-09T16:16:32.481Z,0.80
2022-09-09T16:19:01.127Z,0.90
2022-09-09T16:21:30.101Z,1.00
2022-09-09T16:23:57.794Z,1.00
2022-09-09T16:26:25.017Z,1.10
2022-09-09T16:28:52.149Z,0.90
2022-09-09T16:31:23.849Z,1.03
2022-09-09T16:33:51.571Z,1.00
2022-09-09T16:36:19.874Z,1.17
2022-09-09T16:38:47.162Z,1.10
2022-09-09T16:41:15.205Z,1.00
2022-09-09T16:43:42.838Z,1.47
2022-09-09T16:46:20.678Z,1.23
2022-09-09T16:48:48.690Z,0.97
2022-09-09T16:51:17.306Z,1.13
2022-09-09T16:53:44.379Z,1.10
2022-09-09T16:56:13.080Z,0.90
2022-09-09T16:58:40.213Z,1.20
2022-09-09T17:01:07.486Z,1.40
2022-09-09T17:03:34.603Z,1.40
2022-09-09T17:06:03.324Z,1.40
2022-09-09T17:08:34.338Z,1.10
2022-09-09T17:11:01.508Z,1.33
2022-09-09T17:13:28.582Z,1.40
2022-09-09T17:15:58.629Z,1.30
2022-09-09T17:18:29.790Z,1.37
2022-09-09T17:20:56.865Z,1.50
2022-09-09T17:23:24.032Z,1.13
2022-09-09T17:25:58.683Z,0.97
2022-09-09T17:28:28.376Z,1.17
2022-09-09T17:30:55.456Z,1.30
2022-09-09T17:33:22.542Z,1.50
2022-09-09T17:35:50.060Z,1.13
2022-09-09T17:38:17.171Z,1.17
2022-09-09T17:40:44.266Z,1.27
2022-09-09T17:43:11.523Z,1.10
2022-09-09T17:45:38.735Z,0.93
2022-09-09T17:48:07.892Z,1.30
2022-09-09T17:50:35.000Z,1.43
2022-09-09T17:53:03.311Z,1.30
2022-09-09T17:55:30.397Z,1.50
2022-09-09T17:57:57.485Z,1.50
2022-09-09T18:00:24.615Z,1.27
2022-09-09T18:02:51.878Z,1.00
2022-09-09T18:05:19.163Z,1.30
2022-09-09T18:07:46.266Z,1.50
2022-09-09T18:10:13.579Z,1.40
2022-09-09T18:12:41.102Z,1.50
2022-09-09T18:15:08.357Z,1.40
2022-09-09T18:17:38.667Z,1.40
2022-09-09T18:20:06.209Z,1.10
2022-09-09T18:22:34.114Z,1.30
2022-09-09T18:25:01.240Z,1.40
2022-09-09T18:27:28.986Z,1.30
2022-09-09T18:29:56.076Z,1.50
2022-09-09T18:32:23.256Z,1.40
2022-09-09T18:34:55.392Z,1.50
2022-09-09T18:37:22.754Z,1.80
2022-09-09T18:39:50.319Z,1.50
2022-09-09T18:42:17.433Z,1.90
2022-09-09T18:44:44.537Z,1.50
2022-09-09T18:47:11.657Z,1.47
2022-09-09T18:49:38.740Z,1.30
2022-09-09T18:52:08.706Z,1.50
2022-09-09T18:54:41.285Z,1.70
2022-09-09T18:57:08.413Z,1.50
2022-09-09T18:59:36.174Z,1.60
2022-09-09T19:02:03.342Z,1.90
2022-09-09T19:04:32.784Z,2.00
2022-09-09T19:06:59.892Z,1.30
2022-09-09T19:09:31.001Z,1.43
2022-09-09T19:11:59.831Z,1.40
2022-09-09T19:14:27.665Z,1.53
2022-09-09T19:16:55.422Z,1.50
2022-09-09T19:19:23.589Z,1.60
2022-09-09T19:21:51.641Z,1.50
2022-09-09T19:24:20.506Z,1.80
2022-09-09T19:26:48.973Z,1.53
2022-09-09T19:29:18.064Z,1.80
2022-09-09T19:32:01.969Z,1.80
2022-09-09T19:34:32.804Z,1.70
2022-09-09T19:37:00.515Z,1.77
2022-09-09T19:39:27.858Z,1.83
2022-09-09T19:41:54.942Z,2.33
2022-09-09T19:44:22.623Z,1.93
2022-09-09T19:46:49.967Z,2.00
2022-09-09T19:49:17.563Z,1.70
2022-09-09T19:51:46.215Z,2.10
2022-09-09T19:54:16.510Z,2.10
2022-09-09T19:56:44.089Z,2.00
2022-09-09T19:59:12.491Z,2.20
2022-09-09T20:01:41.401Z,2.17
2022-09-09T20:04:09.206Z,2.17
2022-09-09T20:06:37.942Z,2.30
2022-09-09T20:09:06.006Z,1.80
2022-09-09T20:11:33.847Z,2.30
2022-09-09T20:14:01.025Z,2.33
2022-09-09T20:16:29.190Z,1.83
2022-09-09T20:18:57.387Z,1.87
2022-09-09T20:21:27.768Z,2.30
2022-09-09T20:23:56.009Z,1.83
2022-09-09T20:26:26.139Z,1.70
2022-09-09T20:28:54.333Z,2.00
2022-09-09T20:31:23.674Z,1.90
2022-09-09T20:33:51.956Z,1.90
2022-09-09T20:36:23.706Z,1.97
2022-09-09T20:38:53.025Z,1.90
2022-09-09T20:41:22.807Z,1.90
2022-09-09T20:43:52.020Z,2.13
2022-09-09T20:46:20.323Z,2.00
2022-09-09T20:48:47.945Z,2.10
2022-09-09T20:51:20.287Z,2.07
2022-09-09T20:53:47.845Z,1.90
2022-09-09T20:56:20.264Z,2.07
2022-09-09T20:58:47.360Z,1.73
2022-09-09T21:01:18.265Z,1.93
2022-09-09T21:03:45.557Z,2.00
2022-09-09T21:06:13.029Z,2.00
2022-09-09T21:08:40.996Z,2.00
2022-09-09T21:11:08.413Z,1.80
2022-09-09T21:13:36.990Z,1.60
2022-09-09T21:16:05.898Z,2.00
2022-09-09T21:18:34.461Z,1.83
2022-09-09T21:21:02.635Z,2.00
2022-09-09T21:23:29.859Z,1.93
2022-09-09T21:25:56.975Z,1.80
2022-09-09T21:28:25.704Z,2.00
2022-09-09T21:30:55.006Z,2.00
2022-09-09T21:33:23.471Z,1.90
2022-09-09T21:35:50.601Z,1.83
2022-09-09T21:38:19.788Z,1.93
2022-09-09T21:40:50.093Z,2.10
2022-09-09T21:43:18.057Z,1.87
2022-09-09T21:45:45.421Z,1.90
2022-09-09T21:48:15.217Z,1.90
2022-09-09T21:50:46.347Z,1.87
2022-09-09T21:53:15.814Z,1.60
2022-09-09T21:55:43.552Z,1.83
2022-09-09T21:58:11.690Z,1.73
2022-09-09T22:00:44.268Z,1.67
2022-09-09T22:03:11.395Z,1.77
2022-09-09T22:05:45.349Z,1.60
2022-09-09T22:08:13.628Z,1.60
2022-09-09T22:10:41.784Z,1.40
2022-09-09T22:13:09.244Z,1.63
2022-09-09T22:15:36.602Z,1.60
2022-09-09T22:18:04.681Z,1.30
2022-09-09T22:20:33.362Z,1.53
2022-09-09T22:23:01.052Z,1.60
2022-09-09T22:25:28.516Z,1.77
2022-09-09T22:27:56.232Z,1.83
2022-09-09T22:30:23.397Z,1.70
2022-09-09T22:32:50.937Z,1.60
2022-09-09T22:35:18.072Z,1.70
2022-09-09T22:37:45.180Z,1.80
2022-09-09T22:40:14.076Z,1.70
2022-09-09T22:42:41.792Z,1.83
2022-09-09T22:45:09.674Z,1.80
2022-09-09T22:47:36.936Z,1.77
2022-09-09T22:50:04.645Z,1.63
2022-09-09T22:52:32.158Z,1.73
2022-09-09T22:54:59.573Z,1.80
2022-09-09T22:57:27.194Z,1.50
2022-09-09T22:59:54.296Z,1.50
2022-09-09T23:02:21.726Z,1.70
2022-09-09T23:04:49.250Z,1.70
2022-09-09T23:07:20.934Z,1.50
2022-09-09T23:09:48.008Z,1.60
2022-09-09T23:12:16.268Z,1.60
2022-09-09T23:14:43.340Z,1.57
2022-09-09T23:17:10.418Z,1.57
2022-09-09T23:19:37.498Z,1.80
2022-09-09T23:22:04.724Z,1.60
2022-09-09T23:24:31.780Z,1.70
2022-09-09T23:26:59.114Z,1.80
2022-09-09T23:29:26.195Z,1.77
2022-09-09T23:31:53.312Z,1.60
2022-09-09T23:34:20.379Z,1.70
2022-09-09T23:36:47.584Z,1.50
2022-09-09T23:39:14.716Z,1.60
2022-09-09T23:41:41.886Z,1.73
2022-09-09T23:44:09.047Z,1.90
2022-09-09T23:46:36.241Z,1.90
2022-09-09T23:49:04.135Z,1.77
2022-09-09T23:51:32.011Z,1.87
2022-09-09T23:54:00.499Z,1.50
2022-09-09T23:56:29.014Z,1.80
2022-09-09T23:58:56.600Z,1.40
